sensor_id;sensor_type;location;lat;lon;timestamp;P1;durP1;ratioP1;P2;durP2;ratioP2
16450;SDS011;12243;42.708;23.310;2023-07-22T00:02:13;6.15;;;4.75;;
16450;SDS011;12243;42.708;23.310;2023-07-22T00:04:40;6.80;;;5.05;;
16450;SDS011;12243;42.708;23.310;2023-07-22T00:07:07;8.18;;;5.32;;
16450;SDS011;12243;42.708;23.310;2023-07-22T00:09:34;9.60;;;5.50;;
16450;SDS011;12243;42.708;23.310;2023-07-22T00:12:02;7.93;;;5.70;;
16450;SDS011;12243;42.708;23.310;2023-07-22T00:14:29;7.15;;;5.18;;
16450;SDS011;12243;42.708;23.310;2023-07-22T00:16:56;7.15;;;4.93;;
16450;SDS011;12243;42.708;23.310;2023-07-22T00:19:23;9.00;;;5.32;;
16450;SDS011;12243;42.708;23.310;2023-07-22T00:21:50;7.50;;;5.20;;
16450;SDS011;12243;42.708;23.310;2023-07-22T00:24:17;6.25;;;5.07;;
16450;SDS011;12243;42.708;23.310;2023-07-22T00:26:44;6.05;;;5.45;;
16450;SDS011;12243;42.708;23.310;2023-07-22T00:29:12;6.35;;;5.03;;
16450;SDS011;12243;42.708;23.310;2023-07-22T00:31:39;9.63;;;6.57;;
16450;SDS011;12243;42.708;23.310;2023-07-22T00:34:06;7.95;;;5.18;;
16450;SDS011;12243;42.708;23.310;2023-07-22T00:36:33;6.80;;;5.15;;
16450;SDS011;12243;42.708;23.310;2023-07-22T00:39:00;8.43;;;5.47;;
16450;SDS011;12243;42.708;23.310;2023-07-22T00:41:27;11.27;;;5.80;;
16450;SDS011;12243;42.708;23.310;2023-07-22T00:43:55;13.50;;;5.78;;
16450;SDS011;12243;42.708;23.310;2023-07-22T00:46:23;8.02;;;5.00;;
16450;SDS011;12243;42.708;23.310;2023-07-22T00:48:50;8.57;;;5.60;;
16450;SDS011;12243;42.708;23.310;2023-07-22T00:51:17;11.82;;;5.60;;
16450;SDS011;12243;42.708;23.310;2023-07-22T00:53:45;7.65;;;5.43;;
16450;SDS011;12243;42.708;23.310;2023-07-22T00:56:11;6.15;;;5.22;;
16450;SDS011;12243;42.708;23.310;2023-07-22T00:58:38;7.35;;;5.10;;
16450;SDS011;12243;42.708;23.310;2023-07-22T01:01:05;7.93;;;5.65;;
16450;SDS011;12243;42.708;23.310;2023-07-22T01:03:33;7.82;;;4.82;;
16450;SDS011;12243;42.708;23.310;2023-07-22T01:06:01;7.30;;;4.85;;
16450;SDS011;12243;42.708;23.310;2023-07-22T01:08:28;7.82;;;5.20;;
16450;SDS011;12243;42.708;23.310;2023-07-22T01:10:55;6.88;;;5.25;;
16450;SDS011;12243;42.708;23.310;2023-07-22T01:13:22;8.63;;;5.60;;
16450;SDS011;12243;42.708;23.310;2023-07-22T01:15:49;8.38;;;5.35;;
16450;SDS011;12243;42.708;23.310;2023-07-22T01:18:16;6.75;;;5.20;;
16450;SDS011;12243;42.708;23.310;2023-07-22T01:20:44;7.32;;;5.55;;
16450;SDS011;12243;42.708;23.310;2023-07-22T01:23:14;5.35;;;4.82;;
16450;SDS011;12243;42.708;23.310;2023-07-22T01:25:41;6.22;;;4.75;;
16450;SDS011;12243;42.708;23.310;2023-07-22T01:28:09;7.78;;;5.22;;
16450;SDS011;12243;42.708;23.310;2023-07-22T01:30:36;8.00;;;5.32;;
16450;SDS011;12243;42.708;23.310;2023-07-22T01:33:05;6.85;;;5.13;;
16450;SDS011;12243;42.708;23.310;2023-07-22T01:35:34;7.32;;;5.50;;
16450;SDS011;12243;42.708;23.310;2023-07-22T01:38:01;7.20;;;5.43;;
16450;SDS011;12243;42.708;23.310;2023-07-22T01:40:29;6.18;;;5.57;;
16450;SDS011;12243;42.708;23.310;2023-07-22T01:42:56;7.22;;;6.10;;
16450;SDS011;12243;42.708;23.310;2023-07-22T01:45:23;11.70;;;5.85;;
16450;SDS011;12243;42.708;23.310;2023-07-22T01:47:50;8.60;;;5.65;;
16450;SDS011;12243;42.708;23.310;2023-07-22T01:50:17;7.88;;;5.80;;
16450;SDS011;12243;42.708;23.310;2023-07-22T01:52:44;8.30;;;5.95;;
16450;SDS011;12243;42.708;23.310;2023-07-22T01:55:12;6.65;;;5.20;;
16450;SDS011;12243;42.708;23.310;2023-07-22T01:57:41;9.63;;;6.18;;
16450;SDS011;12243;42.708;23.310;2023-07-22T02:00:08;10.15;;;6.00;;
16450;SDS011;12243;42.708;23.310;2023-07-22T02:02:39;9.18;;;5.85;;
16450;SDS011;12243;42.708;23.310;2023-07-22T02:05:06;8.88;;;5.70;;
16450;SDS011;12243;42.708;23.310;2023-07-22T02:07:33;6.65;;;5.20;;
16450;SDS011;12243;42.708;23.310;2023-07-22T02:10:00;11.18;;;6.22;;
16450;SDS011;12243;42.708;23.310;2023-07-22T02:12:28;8.93;;;6.28;;
16450;SDS011;12243;42.708;23.310;2023-07-22T02:14:56;6.45;;;5.72;;
16450;SDS011;12243;42.708;23.310;2023-07-22T02:17:23;7.93;;;5.85;;
16450;SDS011;12243;42.708;23.310;2023-07-22T02:19:50;8.32;;;6.18;;
16450;SDS011;12243;42.708;23.310;2023-07-22T02:22:17;7.00;;;6.13;;
16450;SDS011;12243;42.708;23.310;2023-07-22T02:24:44;6.38;;;5.78;;
16450;SDS011;12243;42.708;23.310;2023-07-22T02:27:11;13.57;;;5.90;;
16450;SDS011;12243;42.708;23.310;2023-07-22T02:29:37;9.90;;;6.55;;
16450;SDS011;12243;42.708;23.310;2023-07-22T02:32:06;6.55;;;5.07;;
16450;SDS011;12243;42.708;23.310;2023-07-22T02:34:34;7.53;;;5.63;;
16450;SDS011;12243;42.708;23.310;2023-07-22T02:37:02;11.48;;;5.22;;
16450;SDS011;12243;42.708;23.310;2023-07-22T02:39:30;6.40;;;5.45;;
16450;SDS011;12243;42.708;23.310;2023-07-22T02:41:57;6.45;;;5.18;;
16450;SDS011;12243;42.708;23.310;2023-07-22T02:44:24;9.55;;;5.40;;
16450;SDS011;12243;42.708;23.310;2023-07-22T02:46:50;11.20;;;5.85;;
16450;SDS011;12243;42.708;23.310;2023-07-22T02:49:19;7.23;;;4.83;;
16450;SDS011;12243;42.708;23.310;2023-07-22T02:51:46;7.38;;;5.65;;
16450;SDS011;12243;42.708;23.310;2023-07-22T02:54:14;10.05;;;6.45;;
16450;SDS011;12243;42.708;23.310;2023-07-22T02:56:42;8.77;;;5.72;;
16450;SDS011;12243;42.708;23.310;2023-07-22T02:59:09;9.82;;;5.88;;
16450;SDS011;12243;42.708;23.310;2023-07-22T03:01:36;8.25;;;5.55;;
16450;SDS011;12243;42.708;23.310;2023-07-22T03:04:04;7.78;;;5.53;;
16450;SDS011;12243;42.708;23.310;2023-07-22T03:06:32;7.40;;;5.93;;
16450;SDS011;12243;42.708;23.310;2023-07-22T03:08:59;7.22;;;5.60;;
16450;SDS011;12243;42.708;23.310;2023-07-22T03:11:26;6.97;;;5.68;;
16450;SDS011;12243;42.708;23.310;2023-07-22T03:13:53;8.20;;;5.78;;
16450;SDS011;12243;42.708;23.310;2023-07-22T03:16:20;8.63;;;6.13;;
16450;SDS011;12243;42.708;23.310;2023-07-22T03:18:47;8.57;;;6.18;;
16450;SDS011;12243;42.708;23.310;2023-07-22T03:21:14;9.95;;;5.88;;
16450;SDS011;12243;42.708;23.310;2023-07-22T03:23:42;6.35;;;5.60;;
16450;SDS011;12243;42.708;23.310;2023-07-22T03:26:09;6.72;;;5.65;;
16450;SDS011;12243;42.708;23.310;2023-07-22T03:28:35;9.27;;;5.75;;
16450;SDS011;12243;42.708;23.310;2023-07-22T03:31:02;9.20;;;5.82;;
16450;SDS011;12243;42.708;23.310;2023-07-22T03:33:29;6.82;;;6.13;;
16450;SDS011;12243;42.708;23.310;2023-07-22T03:35:56;7.22;;;6.50;;
16450;SDS011;12243;42.708;23.310;2023-07-22T03:38:23;7.93;;;6.05;;
16450;SDS011;12243;42.708;23.310;2023-07-22T03:40:54;10.50;;;6.15;;
16450;SDS011;12243;42.708;23.310;2023-07-22T03:43:21;7.78;;;5.32;;
16450;SDS011;12243;42.708;23.310;2023-07-22T03:45:48;6.57;;;5.70;;
16450;SDS011;12243;42.708;23.310;2023-07-22T03:48:15;7.18;;;6.47;;
16450;SDS011;12243;42.708;23.310;2023-07-22T03:50:42;11.65;;;6.20;;
16450;SDS011;12243;42.708;23.310;2023-07-22T03:53:08;8.88;;;5.70;;
16450;SDS011;12243;42.708;23.310;2023-07-22T03:55:35;8.05;;;5.65;;
16450;SDS011;12243;42.708;23.310;2023-07-22T03:58:03;6.88;;;5.95;;
16450;SDS011;12243;42.708;23.310;2023-07-22T04:00:30;7.43;;;5.45;;
16450;SDS011;12243;42.708;23.310;2023-07-22T04:02:57;7.03;;;5.47;;
16450;SDS011;12243;42.708;23.310;2023-07-22T04:05:24;9.07;;;5.88;;
16450;SDS011;12243;42.708;23.310;2023-07-22T04:07:51;7.28;;;5.85;;
16450;SDS011;12243;42.708;23.310;2023-07-22T04:10:18;11.80;;;5.75;;
16450;SDS011;12243;42.708;23.310;2023-07-22T04:12:44;6.55;;;5.43;;
16450;SDS011;12243;42.708;23.310;2023-07-22T04:15:13;10.27;;;5.80;;
16450;SDS011;12243;42.708;23.310;2023-07-22T04:17:40;8.50;;;5.60;;
16450;SDS011;12243;42.708;23.310;2023-07-22T04:20:07;9.77;;;6.00;;
16450;SDS011;12243;42.708;23.310;2023-07-22T04:22:35;6.85;;;5.43;;
16450;SDS011;12243;42.708;23.310;2023-07-22T04:25:01;10.80;;;5.50;;
16450;SDS011;12243;42.708;23.310;2023-07-22T04:27:31;6.05;;;5.45;;
16450;SDS011;12243;42.708;23.310;2023-07-22T04:29:58;9.60;;;5.97;;
16450;SDS011;12243;42.708;23.310;2023-07-22T04:32:26;10.55;;;5.85;;
16450;SDS011;12243;42.708;23.310;2023-07-22T04:34:53;7.38;;;5.78;;
16450;SDS011;12243;42.708;23.310;2023-07-22T04:37:20;7.25;;;5.85;;
16450;SDS011;12243;42.708;23.310;2023-07-22T04:39:48;10.48;;;5.95;;
16450;SDS011;12243;42.708;23.310;2023-07-22T04:42:15;7.00;;;5.50;;
16450;SDS011;12243;42.708;23.310;2023-07-22T04:44:42;7.65;;;6.13;;
16450;SDS011;12243;42.708;23.310;2023-07-22T04:47:09;6.97;;;5.90;;
16450;SDS011;12243;42.708;23.310;2023-07-22T04:49:39;8.85;;;5.75;;
16450;SDS011;12243;42.708;23.310;2023-07-22T04:52:06;6.38;;;5.78;;
16450;SDS011;12243;42.708;23.310;2023-07-22T04:54:33;6.25;;;5.65;;
16450;SDS011;12243;42.708;23.310;2023-07-22T04:57:00;6.68;;;5.63;;
16450;SDS011;12243;42.708;23.310;2023-07-22T04:59:28;9.18;;;5.90;;
16450;SDS011;12243;42.708;23.310;2023-07-22T05:01:54;6.18;;;5.60;;
16450;SDS011;12243;42.708;23.310;2023-07-22T05:04:21;11.57;;;6.00;;
16450;SDS011;12243;42.708;23.310;2023-07-22T05:06:50;6.70;;;6.10;;
16450;SDS011;12243;42.708;23.310;2023-07-22T05:09:17;7.47;;;5.75;;
16450;SDS011;12243;42.708;23.310;2023-07-22T05:11:44;7.97;;;6.47;;
16450;SDS011;12243;42.708;23.310;2023-07-22T05:14:11;7.10;;;6.15;;
16450;SDS011;12243;42.708;23.310;2023-07-22T05:16:38;7.55;;;6.72;;
16450;SDS011;12243;42.708;23.310;2023-07-22T05:19:04;9.52;;;6.80;;
16450;SDS011;12243;42.708;23.310;2023-07-22T05:21:33;10.93;;;6.30;;
16450;SDS011;12243;42.708;23.310;2023-07-22T05:24:01;9.25;;;6.57;;
16450;SDS011;12243;42.708;23.310;2023-07-22T05:26:28;9.55;;;6.57;;
16450;SDS011;12243;42.708;23.310;2023-07-22T05:28:56;10.70;;;7.05;;
16450;SDS011;12243;42.708;23.310;2023-07-22T05:31:23;6.90;;;6.22;;
16450;SDS011;12243;42.708;23.310;2023-07-22T05:33:49;7.28;;;6.57;;
16450;SDS011;12243;42.708;23.310;2023-07-22T05:36:16;8.40;;;6.13;;
16450;SDS011;12243;42.708;23.310;2023-07-22T05:38:43;7.45;;;6.75;;
16450;SDS011;12243;42.708;23.310;2023-07-22T05:41:12;7.40;;;6.75;;
16450;SDS011;12243;42.708;23.310;2023-07-22T05:43:39;6.93;;;6.32;;
16450;SDS011;12243;42.708;23.310;2023-07-22T05:46:05;9.32;;;6.10;;
16450;SDS011;12243;42.708;23.310;2023-07-22T05:48:32;7.20;;;6.50;;
16450;SDS011;12243;42.708;23.310;2023-07-22T05:50:59;7.40;;;6.28;;
16450;SDS011;12243;42.708;23.310;2023-07-22T05:53:26;7.40;;;6.63;;
16450;SDS011;12243;42.708;23.310;2023-07-22T05:55:53;8.95;;;6.25;;
16450;SDS011;12243;42.708;23.310;2023-07-22T05:58:21;9.85;;;6.20;;
16450;SDS011;12243;42.708;23.310;2023-07-22T06:00:48;7.78;;;6.20;;
16450;SDS011;12243;42.708;23.310;2023-07-22T06:03:16;8.18;;;6.38;;
16450;SDS011;12243;42.708;23.310;2023-07-22T06:05:43;8.32;;;6.32;;
16450;SDS011;12243;42.708;23.310;2023-07-22T06:08:10;6.53;;;5.90;;
16450;SDS011;12243;42.708;23.310;2023-07-22T06:10:37;6.80;;;6.20;;
16450;SDS011;12243;42.708;23.310;2023-07-22T06:13:04;8.32;;;6.03;;
16450;SDS011;12243;42.708;23.310;2023-07-22T06:15:32;6.60;;;5.78;;
16450;SDS011;12243;42.708;23.310;2023-07-22T06:17:59;8.50;;;6.10;;
16450;SDS011;12243;42.708;23.310;2023-07-22T06:20:26;9.05;;;6.85;;
16450;SDS011;12243;42.708;23.310;2023-07-22T06:22:53;8.15;;;6.57;;
16450;SDS011;12243;42.708;23.310;2023-07-22T06:25:21;7.80;;;6.00;;
16450;SDS011;12243;42.708;23.310;2023-07-22T06:27:47;8.68;;;6.45;;
16450;SDS011;12243;42.708;23.310;2023-07-22T06:30:14;7.65;;;6.65;;
16450;SDS011;12243;42.708;23.310;2023-07-22T06:32:42;7.10;;;6.25;;
16450;SDS011;12243;42.708;23.310;2023-07-22T06:35:09;7.55;;;5.88;;
16450;SDS011;12243;42.708;23.310;2023-07-22T06:37:36;8.48;;;5.72;;
16450;SDS011;12243;42.708;23.310;2023-07-22T06:40:03;8.40;;;7.28;;
16450;SDS011;12243;42.708;23.310;2023-07-22T06:42:31;9.73;;;6.75;;
16450;SDS011;12243;42.708;23.310;2023-07-22T06:44:58;7.00;;;6.30;;
16450;SDS011;12243;42.708;23.310;2023-07-22T06:47:25;10.40;;;6.50;;
16450;SDS011;12243;42.708;23.310;2023-07-22T06:49:53;10.13;;;6.97;;
16450;SDS011;12243;42.708;23.310;2023-07-22T06:52:20;8.30;;;6.50;;
16450;SDS011;12243;42.708;23.310;2023-07-22T06:54:46;9.45;;;6.32;;
16450;SDS011;12243;42.708;23.310;2023-07-22T06:57:13;7.75;;;7.03;;
16450;SDS011;12243;42.708;23.310;2023-07-22T06:59:40;8.65;;;6.18;;
16450;SDS011;12243;42.708;23.310;2023-07-22T07:02:07;7.03;;;6.22;;
16450;SDS011;12243;42.708;23.310;2023-07-22T07:04:34;7.20;;;6.47;;
16450;SDS011;12243;42.708;23.310;2023-07-22T07:07:04;7.53;;;6.35;;
16450;SDS011;12243;42.708;23.310;2023-07-22T07:09:31;8.50;;;6.53;;
16450;SDS011;12243;42.708;23.310;2023-07-22T07:11:58;6.68;;;6.07;;
16450;SDS011;12243;42.708;23.310;2023-07-22T07:14:25;6.15;;;5.60;;
16450;SDS011;12243;42.708;23.310;2023-07-22T07:16:52;10.00;;;5.95;;
16450;SDS011;12243;42.708;23.310;2023-07-22T07:19:19;7.07;;;6.25;;
16450;SDS011;12243;42.708;23.310;2023-07-22T07:21:46;7.40;;;5.95;;
16450;SDS011;12243;42.708;23.310;2023-07-22T07:24:14;7.88;;;6.30;;
16450;SDS011;12243;42.708;23.310;2023-07-22T07:26:41;9.05;;;6.78;;
16450;SDS011;12243;42.708;23.310;2023-07-22T07:29:08;6.60;;;5.97;;
16450;SDS011;12243;42.708;23.310;2023-07-22T07:31:35;8.85;;;6.20;;
16450;SDS011;12243;42.708;23.310;2023-07-22T07:34:01;8.15;;;6.82;;
16450;SDS011;12243;42.708;23.310;2023-07-22T07:36:28;7.65;;;6.43;;
16450;SDS011;12243;42.708;23.310;2023-07-22T07:38:55;8.65;;;7.28;;
16450;SDS011;12243;42.708;23.310;2023-07-22T07:41:24;8.68;;;7.63;;
16450;SDS011;12243;42.708;23.310;2023-07-22T07:43:50;10.20;;;7.40;;
16450;SDS011;12243;42.708;23.310;2023-07-22T07:46:18;8.20;;;6.82;;
16450;SDS011;12243;42.708;23.310;2023-07-22T07:48:47;8.63;;;6.82;;
16450;SDS011;12243;42.708;23.310;2023-07-22T07:51:15;8.07;;;7.22;;
16450;SDS011;12243;42.708;23.310;2023-07-22T07:53:43;10.82;;;8.00;;
16450;SDS011;12243;42.708;23.310;2023-07-22T07:56:12;16.35;;;7.53;;
16450;SDS011;12243;42.708;23.310;2023-07-22T07:58:40;10.20;;;7.22;;
16450;SDS011;12243;42.708;23.310;2023-07-22T08:01:07;7.82;;;6.88;;
16450;SDS011;12243;42.708;23.310;2023-07-22T08:03:35;10.27;;;7.05;;
16450;SDS011;12243;42.708;23.310;2023-07-22T08:06:03;8.77;;;6.93;;
16450;SDS011;12243;42.708;23.310;2023-07-22T08:08:30;7.95;;;7.13;;
16450;SDS011;12243;42.708;23.310;2023-07-22T08:10:57;11.05;;;7.20;;
16450;SDS011;12243;42.708;23.310;2023-07-22T08:13:25;7.68;;;6.90;;
16450;SDS011;12243;42.708;23.310;2023-07-22T08:15:53;9.48;;;7.85;;
16450;SDS011;12243;42.708;23.310;2023-07-22T08:18:20;11.52;;;7.70;;
16450;SDS011;12243;42.708;23.310;2023-07-22T08:20:47;8.30;;;6.93;;
16450;SDS011;12243;42.708;23.310;2023-07-22T08:23:14;9.32;;;8.40;;
16450;SDS011;12243;42.708;23.310;2023-07-22T08:25:40;8.65;;;7.75;;
16450;SDS011;12243;42.708;23.310;2023-07-22T08:28:07;9.23;;;8.32;;
16450;SDS011;12243;42.708;23.310;2023-07-22T08:30:34;8.95;;;7.68;;
16450;SDS011;12243;42.708;23.310;2023-07-22T08:33:03;9.05;;;8.15;;
16450;SDS011;12243;42.708;23.310;2023-07-22T08:35:29;9.48;;;8.40;;
16450;SDS011;12243;42.708;23.310;2023-07-22T08:37:56;9.35;;;8.32;;
16450;SDS011;12243;42.708;23.310;2023-07-22T08:40:23;9.55;;;8.15;;
16450;SDS011;12243;42.708;23.310;2023-07-22T08:42:50;8.57;;;7.75;;
16450;SDS011;12243;42.708;23.310;2023-07-22T08:45:17;9.20;;;8.35;;
16450;SDS011;12243;42.708;23.310;2023-07-22T08:47:46;10.55;;;8.68;;
16450;SDS011;12243;42.708;23.310;2023-07-22T08:50:16;13.45;;;8.52;;
16450;SDS011;12243;42.708;23.310;2023-07-22T08:52:46;10.35;;;8.48;;
16450;SDS011;12243;42.708;23.310;2023-07-22T08:55:14;8.63;;;7.75;;
16450;SDS011;12243;42.708;23.310;2023-07-22T08:57:41;9.30;;;8.40;;
16450;SDS011;12243;42.708;23.310;2023-07-22T09:00:08;9.77;;;7.65;;
16450;SDS011;12243;42.708;23.310;2023-07-22T09:02:37;8.25;;;7.43;;
16450;SDS011;12243;42.708;23.310;2023-07-22T09:05:05;9.38;;;7.57;;
16450;SDS011;12243;42.708;23.310;2023-07-22T09:07:34;9.20;;;8.30;;
16450;SDS011;12243;42.708;23.310;2023-07-22T09:10:02;9.90;;;7.90;;
16450;SDS011;12243;42.708;23.310;2023-07-22T09:12:29;11.35;;;8.38;;
16450;SDS011;12243;42.708;23.310;2023-07-22T09:14:57;16.42;;;9.02;;
16450;SDS011;12243;42.708;23.310;2023-07-22T09:17:24;11.18;;;8.10;;
16450;SDS011;12243;42.708;23.310;2023-07-22T09:19:52;10.02;;;8.13;;
16450;SDS011;12243;42.708;23.310;2023-07-22T09:22:24;9.15;;;8.15;;
16450;SDS011;12243;42.708;23.310;2023-07-22T09:24:52;13.35;;;8.00;;
16450;SDS011;12243;42.708;23.310;2023-07-22T09:27:29;11.00;;;7.57;;
16450;SDS011;12243;42.708;23.310;2023-07-22T09:29:59;10.68;;;8.63;;
16450;SDS011;12243;42.708;23.310;2023-07-22T09:32:34;9.07;;;8.15;;
16450;SDS011;12243;42.708;23.310;2023-07-22T09:35:02;11.70;;;8.63;;
16450;SDS011;12243;42.708;23.310;2023-07-22T09:37:36;9.23;;;8.32;;
16450;SDS011;12243;42.708;23.310;2023-07-22T09:40:07;9.43;;;7.70;;
16450;SDS011;12243;42.708;23.310;2023-07-22T09:42:40;11.60;;;8.98;;
16450;SDS011;12243;42.708;23.310;2023-07-22T09:45:10;11.25;;;7.97;;
16450;SDS011;12243;42.708;23.310;2023-07-22T09:47:39;10.95;;;7.63;;
16450;SDS011;12243;42.708;23.310;2023-07-22T09:50:06;17.45;;;8.15;;
16450;SDS011;12243;42.708;23.310;2023-07-22T09:52:40;10.15;;;8.43;;
16450;SDS011;12243;42.708;23.310;2023-07-22T09:55:19;9.32;;;7.78;;
16450;SDS011;12243;42.708;23.310;2023-07-22T09:57:48;7.97;;;7.18;;
16450;SDS011;12243;42.708;23.310;2023-07-22T10:00:16;9.98;;;7.00;;
16450;SDS011;12243;42.708;23.310;2023-07-22T10:02:45;8.32;;;7.47;;
16450;SDS011;12243;42.708;23.310;2023-07-22T10:05:14;10.60;;;6.68;;
16450;SDS011;12243;42.708;23.310;2023-07-22T10:07:43;11.73;;;7.38;;
16450;SDS011;12243;42.708;23.310;2023-07-22T10:10:12;10.30;;;7.25;;
16450;SDS011;12243;42.708;23.310;2023-07-22T10:12:42;10.75;;;8.30;;
16450;SDS011;12243;42.708;23.310;2023-07-22T10:15:10;10.68;;;7.75;;
16450;SDS011;12243;42.708;23.310;2023-07-22T10:17:39;9.25;;;8.35;;
16450;SDS011;12243;42.708;23.310;2023-07-22T10:20:06;12.27;;;6.25;;
16450;SDS011;12243;42.708;23.310;2023-07-22T10:22:35;12.30;;;5.97;;
16450;SDS011;12243;42.708;23.310;2023-07-22T10:25:04;14.05;;;6.35;;
16450;SDS011;12243;42.708;23.310;2023-07-22T10:27:32;10.45;;;6.35;;
16450;SDS011;12243;42.708;23.310;2023-07-22T10:30:02;15.15;;;6.78;;
16450;SDS011;12243;42.708;23.310;2023-07-22T10:32:33;10.95;;;6.47;;
16450;SDS011;12243;42.708;23.310;2023-07-22T10:35:01;13.40;;;6.93;;
16450;SDS011;12243;42.708;23.310;2023-07-22T10:37:29;11.35;;;6.63;;
16450;SDS011;12243;42.708;23.310;2023-07-22T10:40:00;12.05;;;6.43;;
16450;SDS011;12243;42.708;23.310;2023-07-22T10:42:43;9.38;;;5.78;;
16450;SDS011;12243;42.708;23.310;2023-07-22T10:45:25;10.52;;;5.70;;
16450;SDS011;12243;42.708;23.310;2023-07-22T10:48:00;11.27;;;5.82;;
16450;SDS011;12243;42.708;23.310;2023-07-22T10:50:39;13.57;;;6.63;;
16450;SDS011;12243;42.708;23.310;2023-07-22T10:53:09;9.77;;;5.57;;
16450;SDS011;12243;42.708;23.310;2023-07-22T11:01:36;12.13;;;5.53;;
16450;SDS011;12243;42.708;23.310;2023-07-22T11:04:05;11.48;;;5.60;;
16450;SDS011;12243;42.708;23.310;2023-07-22T11:06:51;10.80;;;6.22;;
16450;SDS011;12243;42.708;23.310;2023-07-22T11:09:35;15.43;;;6.20;;
16450;SDS011;12243;42.708;23.310;2023-07-22T11:12:04;10.55;;;5.72;;
16450;SDS011;12243;42.708;23.310;2023-07-22T11:14:33;15.85;;;5.82;;
16450;SDS011;12243;42.708;23.310;2023-07-22T11:17:03;13.25;;;5.70;;
16450;SDS011;12243;42.708;23.310;2023-07-22T11:19:33;9.90;;;5.50;;
16450;SDS011;12243;42.708;23.310;2023-07-22T11:22:00;12.70;;;5.63;;
16450;SDS011;12243;42.708;23.310;2023-07-22T11:24:27;12.75;;;5.63;;
16450;SDS011;12243;42.708;23.310;2023-07-22T11:26:56;13.73;;;5.75;;
16450;SDS011;12243;42.708;23.310;2023-07-22T11:29:23;12.60;;;5.38;;
16450;SDS011;12243;42.708;23.310;2023-07-22T11:31:50;10.50;;;4.72;;
16450;SDS011;12243;42.708;23.310;2023-07-22T11:34:19;11.48;;;5.80;;
16450;SDS011;12243;42.708;23.310;2023-07-22T11:36:48;14.75;;;5.60;;
16450;SDS011;12243;42.708;23.310;2023-07-22T11:39:17;15.35;;;5.95;;
16450;SDS011;12243;42.708;23.310;2023-07-22T11:41:45;19.67;;;5.82;;
16450;SDS011;12243;42.708;23.310;2023-07-22T11:44:13;11.25;;;5.18;;
16450;SDS011;12243;42.708;23.310;2023-07-22T11:46:47;11.02;;;5.22;;
16450;SDS011;12243;42.708;23.310;2023-07-22T11:49:26;13.55;;;5.57;;
16450;SDS011;12243;42.708;23.310;2023-07-22T11:51:54;14.23;;;5.55;;
16450;SDS011;12243;42.708;23.310;2023-07-22T11:54:23;8.00;;;5.00;;
16450;SDS011;12243;42.708;23.310;2023-07-22T11:56:49;13.70;;;6.10;;
16450;SDS011;12243;42.708;23.310;2023-07-22T11:59:16;10.60;;;5.55;;
16450;SDS011;12243;42.708;23.310;2023-07-22T12:01:44;13.70;;;5.03;;
16450;SDS011;12243;42.708;23.310;2023-07-22T12:04:12;14.30;;;6.25;;
16450;SDS011;12243;42.708;23.310;2023-07-22T12:06:41;14.45;;;5.95;;
16450;SDS011;12243;42.708;23.310;2023-07-22T12:09:09;8.43;;;5.25;;
16450;SDS011;12243;42.708;23.310;2023-07-22T12:11:36;19.98;;;5.60;;
16450;SDS011;12243;42.708;23.310;2023-07-22T12:14:04;11.70;;;5.03;;
16450;SDS011;12243;42.708;23.310;2023-07-22T12:16:34;11.07;;;5.10;;
16450;SDS011;12243;42.708;23.310;2023-07-22T12:19:01;14.52;;;6.30;;
16450;SDS011;12243;42.708;23.310;2023-07-22T12:21:29;12.02;;;5.88;;
16450;SDS011;12243;42.708;23.310;2023-07-22T12:23:57;12.45;;;5.82;;
16450;SDS011;12243;42.708;23.310;2023-07-22T12:26:25;12.30;;;5.70;;
16450;SDS011;12243;42.708;23.310;2023-07-22T12:28:52;10.30;;;5.82;;
16450;SDS011;12243;42.708;23.310;2023-07-22T12:31:18;14.68;;;5.88;;
16450;SDS011;12243;42.708;23.310;2023-07-22T12:33:45;11.27;;;5.35;;
16450;SDS011;12243;42.708;23.310;2023-07-22T12:36:12;15.05;;;5.93;;
16450;SDS011;12243;42.708;23.310;2023-07-22T12:38:39;16.77;;;6.10;;
16450;SDS011;12243;42.708;23.310;2023-07-22T12:41:07;13.82;;;5.45;;
16450;SDS011;12243;42.708;23.310;2023-07-22T12:43:34;14.57;;;5.78;;
16450;SDS011;12243;42.708;23.310;2023-07-22T12:46:01;12.95;;;5.43;;
16450;SDS011;12243;42.708;23.310;2023-07-22T12:48:28;9.73;;;5.72;;
16450;SDS011;12243;42.708;23.310;2023-07-22T12:50:55;12.02;;;6.15;;
16450;SDS011;12243;42.708;23.310;2023-07-22T12:53:22;11.45;;;5.95;;
16450;SDS011;12243;42.708;23.310;2023-07-22T12:55:49;11.40;;;5.50;;
16450;SDS011;12243;42.708;23.310;2023-07-22T12:58:17;17.95;;;5.38;;
16450;SDS011;12243;42.708;23.310;2023-07-22T13:00:44;15.02;;;5.78;;
16450;SDS011;12243;42.708;23.310;2023-07-22T13:03:11;14.88;;;5.97;;
16450;SDS011;12243;42.708;23.310;2023-07-22T13:05:37;13.77;;;5.45;;
16450;SDS011;12243;42.708;23.310;2023-07-22T13:08:04;12.32;;;5.38;;
16450;SDS011;12243;42.708;23.310;2023-07-22T13:10:33;11.35;;;4.92;;
16450;SDS011;12243;42.708;23.310;2023-07-22T13:13:04;11.52;;;5.22;;
16450;SDS011;12243;42.708;23.310;2023-07-22T13:15:32;14.93;;;6.07;;
16450;SDS011;12243;42.708;23.310;2023-07-22T13:17:59;13.35;;;5.88;;
16450;SDS011;12243;42.708;23.310;2023-07-22T13:20:26;13.43;;;5.47;;
16450;SDS011;12243;42.708;23.310;2023-07-22T13:22:52;12.65;;;5.22;;
16450;SDS011;12243;42.708;23.310;2023-07-22T13:25:19;17.30;;;5.78;;
16450;SDS011;12243;42.708;23.310;2023-07-22T13:27:46;14.65;;;5.35;;
16450;SDS011;12243;42.708;23.310;2023-07-22T13:30:13;14.05;;;5.78;;
16450;SDS011;12243;42.708;23.310;2023-07-22T13:32:41;8.45;;;4.75;;
16450;SDS011;12243;42.708;23.310;2023-07-22T13:35:08;20.55;;;5.53;;
16450;SDS011;12243;42.708;23.310;2023-07-22T13:37:35;17.67;;;5.00;;
16450;SDS011;12243;42.708;23.310;2023-07-22T13:40:03;18.10;;;5.30;;
16450;SDS011;12243;42.708;23.310;2023-07-22T13:42:35;11.02;;;5.43;;
16450;SDS011;12243;42.708;23.310;2023-07-22T13:45:02;17.60;;;5.78;;
16450;SDS011;12243;42.708;23.310;2023-07-22T13:47:29;13.27;;;5.20;;
16450;SDS011;12243;42.708;23.310;2023-07-22T13:49:57;18.70;;;5.68;;
16450;SDS011;12243;42.708;23.310;2023-07-22T13:52:25;13.98;;;4.70;;
16450;SDS011;12243;42.708;23.310;2023-07-22T13:54:51;14.77;;;5.07;;
16450;SDS011;12243;42.708;23.310;2023-07-22T13:57:18;13.45;;;5.63;;
16450;SDS011;12243;42.708;23.310;2023-07-22T13:59:45;17.63;;;4.78;;
16450;SDS011;12243;42.708;23.310;2023-07-22T14:02:12;20.08;;;5.55;;
16450;SDS011;12243;42.708;23.310;2023-07-22T14:04:39;11.73;;;5.20;;
16450;SDS011;12243;42.708;23.310;2023-07-22T14:07:07;13.38;;;5.55;;
16450;SDS011;12243;42.708;23.310;2023-07-22T14:09:34;13.30;;;5.10;;
16450;SDS011;12243;42.708;23.310;2023-07-22T14:12:01;11.45;;;5.65;;
16450;SDS011;12243;42.708;23.310;2023-07-22T14:14:28;21.80;;;5.43;;
16450;SDS011;12243;42.708;23.310;2023-07-22T14:16:55;10.13;;;5.10;;
16450;SDS011;12243;42.708;23.310;2023-07-22T14:19:23;13.40;;;4.90;;
16450;SDS011;12243;42.708;23.310;2023-07-22T14:21:50;10.30;;;5.20;;
16450;SDS011;12243;42.708;23.310;2023-07-22T14:24:18;11.63;;;5.03;;
16450;SDS011;12243;42.708;23.310;2023-07-22T14:26:45;14.02;;;4.93;;
16450;SDS011;12243;42.708;23.310;2023-07-22T14:29:12;15.30;;;5.47;;
16450;SDS011;12243;42.708;23.310;2023-07-22T14:31:42;16.00;;;5.75;;
16450;SDS011;12243;42.708;23.310;2023-07-22T14:34:09;10.65;;;4.90;;
16450;SDS011;12243;42.708;23.310;2023-07-22T14:36:36;14.50;;;5.38;;
16450;SDS011;12243;42.708;23.310;2023-07-22T14:39:02;10.85;;;5.18;;